Time;durP1;ratioP1;P1;durP2;ratioP2;P2;SDS_P1;SDS_P2;PMS_P1;PMS_P2;Temp;Humidity;BMP_temperature;BMP_pressure;BME280_temperature;BME280_humidity;BME280_pressure;Samples;Min_cycle;Max_cycle;Signal;HPM_P1;HPM_P2
2023/08/16 00:00:06;;;;;;;8.30;4.45;;;15.60;99.90;;;;;;5078993;28;20051;-56
2023/08/16 00:02:32;;;;;;;7.47;4.47;;;15.70;99.90;;;;;;5089384;28;20047;-56
2023/08/16 00:04:58;;;;;;;8.07;4.32;;;15.60;99.90;;;;;;5101931;28;20054;-56
2023/08/16 00:07:24;;;;;;;6.95;4.43;;;15.60;99.90;;;;;;5099700;28;20043;-55
2023/08/16 00:09:52;;;;;;;10.75;4.80;;;15.50;99.90;;;;;;5090503;28;20535;-56
2023/08/16 00:12:18;;;;;;;9.13;5.13;;;15.40;99.90;;;;;;5083130;28;20052;-55
2023/08/16 00:14:44;;;;;;;6.78;4.80;;;15.40;99.90;;;;;;5080609;28;20108;-56
2023/08/16 00:17:09;;;;;;;8.15;4.63;;;15.40;99.90;;;;;;5068422;28;20123;-56
2023/08/16 00:19:37;;;;;;;8.15;4.40;;;15.30;99.90;;;;;;5080816;28;20051;-56
2023/08/16 00:22:02;;;;;;;10.32;5.53;;;15.30;99.90;;;;;;5094167;28;20123;-55
2023/08/16 00:24:28;;;;;;;8.02;5.47;;;15.30;99.90;;;;;;5080316;28;20488;-56
2023/08/16 00:26:54;;;;;;;9.60;5.40;;;15.20;99.90;;;;;;5096125;28;20040;-56
2023/08/16 00:29:19;;;;;;;6.93;5.35;;;15.20;99.90;;;;;;5096256;28;20060;-56
2023/08/16 00:31:45;;;;;;;7.63;4.88;;;15.20;99.90;;;;;;5088211;28;20048;-55
2023/08/16 00:34:11;;;;;;;8.52;5.05;;;15.10;99.90;;;;;;5085402;28;20035;-56
2023/08/16 00:36:36;;;;;;;8.02;4.80;;;15.00;99.90;;;;;;5100051;28;20039;-56
2023/08/16 00:39:03;;;;;;;9.00;5.03;;;15.00;99.90;;;;;;5099203;28;20056;-56
2023/08/16 00:41:28;;;;;;;6.75;4.95;;;15.00;99.90;;;;;;5079726;28;20063;-57
2023/08/16 00:43:54;;;;;;;6.90;4.43;;;15.00;99.90;;;;;;5077790;28;20075;-56
2023/08/16 00:46:20;;;;;;;5.35;4.65;;;15.00;99.90;;;;;;5073371;28;20033;-56
2023/08/16 00:48:46;;;;;;;10.73;4.88;;;15.00;99.90;;;;;;5074898;28;20497;-56
2023/08/16 00:51:13;;;;;;;5.90;4.70;;;15.00;99.90;;;;;;5076815;28;20059;-56
2023/08/16 00:53:40;;;;;;;10.43;4.80;;;15.00;99.90;;;;;;5080168;28;20044;-56
2023/08/16 00:56:06;;;;;;;6.63;4.90;;;15.00;99.90;;;;;;5081501;28;20041;-56
2023/08/16 00:58:32;;;;;;;7.22;6.30;;;14.90;99.90;;;;;;5079579;28;20051;-56
2023/08/16 01:00:58;;;;;;;8.88;5.68;;;14.90;99.90;;;;;;5081624;28;20110;-56
2023/08/16 01:03:24;;;;;;;7.47;5.40;;;14.90;99.90;;;;;;5096444;28;20032;-56
2023/08/16 01:05:50;;;;;;;7.95;5.32;;;14.80;99.90;;;;;;5097178;28;20044;-56
2023/08/16 01:08:16;;;;;;;8.60;6.82;;;14.70;99.90;;;;;;5067223;28;20029;-56
2023/08/16 01:11:07;;;;;;;13.25;7.47;;;14.70;99.90;;;;;;5066556;28;20400;-56
2023/08/16 01:13:57;;;;;;;9.23;7.00;;;14.60;99.90;;;;;;5076956;28;20048;-56
2023/08/16 01:16:25;;;;;;;8.63;7.38;;;14.60;99.90;;;;;;5080588;28;20051;-57
2023/08/16 01:18:53;;;;;;;8.77;6.97;;;14.50;99.90;;;;;;5088627;28;20105;-56
2023/08/16 01:21:20;;;;;;;7.97;6.70;;;14.60;99.90;;;;;;5074191;28;20393;-56
2023/08/16 01:24:07;;;;;;;7.95;7.10;;;14.50;99.90;;;;;;5091959;28;20039;-56
2023/08/16 01:26:35;;;;;;;9.50;6.93;;;14.50;99.90;;;;;;5099939;28;20036;-56
2023/08/16 01:29:03;;;;;;;6.85;6.15;;;14.50;99.90;;;;;;5099531;28;20064;-56
2023/08/16 01:31:30;;;;;;;8.88;6.72;;;14.50;99.90;;;;;;5079183;28;20163;-56
2023/08/16 01:33:57;;;;;;;8.75;6.40;;;14.50;99.90;;;;;;5080751;28;20057;-56
2023/08/16 01:36:22;;;;;;;9.57;7.03;;;14.50;99.90;;;;;;5078685;28;20584;-56
2023/08/16 01:38:48;;;;;;;9.38;7.03;;;14.50;99.90;;;;;;5080745;28;20052;-54
2023/08/16 01:41:23;;;;;;;8.98;7.72;;;14.50;99.90;;;;;;5074375;28;20131;-57
2023/08/16 01:43:50;;;;;;;8.90;7.05;;;14.40;99.90;;;;;;5079631;28;20075;-56
2023/08/16 01:46:16;;;;;;;8.45;7.05;;;14.40;99.90;;;;;;5055890;28;20055;-56
2023/08/16 01:48:44;;;;;;;8.88;6.90;;;14.40;99.90;;;;;;5055103;28;20041;-56
2023/08/16 01:51:11;;;;;;;7.45;6.28;;;14.40;99.90;;;;;;5057705;28;20657;-56
2023/08/16 01:53:36;;;;;;;12.80;7.68;;;14.40;99.90;;;;;;5056397;28;20555;-56
2023/08/16 01:56:02;;;;;;;10.55;7.35;;;14.40;99.90;;;;;;5061919;28;20055;-56
2023/08/16 01:58:28;;;;;;;9.57;7.28;;;14.40;99.90;;;;;;5053586;28;20131;-56
2023/08/16 02:00:54;;;;;;;9.38;7.35;;;14.40;99.90;;;;;;5058712;28;20051;-56
2023/08/16 02:03:20;;;;;;;8.85;7.55;;;14.40;99.90;;;;;;5075827;28;20041;-56
2023/08/16 02:05:45;;;;;;;8.35;7.25;;;14.40;99.90;;;;;;5078628;28;20558;-57
2023/08/16 02:08:12;;;;;;;9.88;6.85;;;14.40;99.90;;;;;;5076583;28;20532;-56
2023/08/16 02:10:38;;;;;;;8.50;7.40;;;14.40;99.90;;;;;;5068727;28;20041;-56
2023/08/16 02:13:03;;;;;;;10.93;6.82;;;14.40;99.90;;;;;;5094983;28;20044;-56
2023/08/16 02:15:29;;;;;;;8.85;7.25;;;14.40;99.90;;;;;;5085093;28;20048;-56
2023/08/16 02:17:55;;;;;;;11.63;7.70;;;14.40;99.90;;;;;;5079721;28;20049;-56
2023/08/16 02:20:20;;;;;;;11.50;7.25;;;14.40;99.90;;;;;;5079916;28;20541;-56
2023/08/16 02:22:46;;;;;;;9.68;7.03;;;14.30;99.90;;;;;;5090758;28;20040;-57
2023/08/16 02:25:12;;;;;;;9.07;7.03;;;14.30;99.90;;;;;;5087985;28;20045;-56
2023/08/16 02:27:38;;;;;;;11.38;7.53;;;14.40;99.90;;;;;;5080499;28;20101;-56
2023/08/16 02:30:05;;;;;;;10.95;7.45;;;14.30;99.90;;;;;;5075816;28;20424;-55
2023/08/16 02:32:32;;;;;;;11.85;7.10;;;14.30;99.90;;;;;;5081422;28;20485;-56
2023/08/16 02:34:57;;;;;;;8.32;7.20;;;14.30;99.90;;;;;;5083362;28;20036;-57
2023/08/16 02:37:23;;;;;;;11.55;7.05;;;14.40;99.90;;;;;;5081547;28;20109;-57
2023/08/16 02:39:49;;;;;;;14.45;7.13;;;14.30;99.90;;;;;;5067771;28;20052;-57
2023/08/16 02:42:15;;;;;;;10.93;7.03;;;14.30;99.90;;;;;;5089648;28;20029;-55
2023/08/16 02:44:41;;;;;;;9.07;6.80;;;14.30;99.90;;;;;;5088658;28;20377;-56
2023/08/16 02:47:06;;;;;;;8.77;6.57;;;14.30;99.90;;;;;;5099558;28;20032;-56
2023/08/16 02:49:32;;;;;;;11.25;7.13;;;14.30;99.90;;;;;;5094357;28;20158;-56
2023/08/16 02:51:58;;;;;;;10.35;7.72;;;14.30;99.90;;;;;;5083717;28;20032;-57
2023/08/16 02:54:23;;;;;;;12.05;8.00;;;14.20;99.90;;;;;;5084079;28;20052;-56
2023/08/16 02:56:49;;;;;;;11.90;8.23;;;14.20;99.90;;;;;;5083820;28;20037;-56
2023/08/16 02:59:15;;;;;;;13.00;8.45;;;14.20;99.90;;;;;;5082795;28;20429;-55
2023/08/16 03:01:40;;;;;;;10.95;8.48;;;14.10;99.90;;;;;;5089509;28;20043;-56
2023/08/16 03:04:06;;;;;;;15.73;8.50;;;14.10;99.90;;;;;;5097492;28;20543;-56
2023/08/16 03:06:32;;;;;;;12.80;8.40;;;14.10;99.90;;;;;;5079702;28;20119;-56
2023/08/16 03:08:59;;;;;;;13.57;8.35;;;14.10;99.90;;;;;;5083837;28;20127;-56
2023/08/16 03:11:24;;;;;;;11.13;9.00;;;14.00;99.90;;;;;;5080946;28;20045;-56
2023/08/16 03:13:50;;;;;;;14.60;8.55;;;14.10;99.90;;;;;;5086375;28;20044;-56
2023/08/16 03:16:16;;;;;;;14.32;8.75;;;14.00;99.90;;;;;;5102503;28;20054;-56
2023/08/16 03:18:41;;;;;;;9.38;7.85;;;14.00;99.90;;;;;;5102575;28;20098;-56
2023/08/16 03:21:07;;;;;;;12.32;8.63;;;14.00;99.90;;;;;;5088091;28;20048;-56
2023/08/16 03:23:33;;;;;;;16.58;9.15;;;14.00;99.90;;;;;;5080042;28;20040;-56
2023/08/16 03:25:58;;;;;;;14.70;8.82;;;14.00;99.90;;;;;;5100118;28;20039;-56
2023/08/16 03:28:24;;;;;;;18.33;9.18;;;13.90;99.90;;;;;;5081190;28;20041;-56
2023/08/16 03:30:50;;;;;;;14.07;8.77;;;13.90;99.90;;;;;;5080992;28;20048;-57
2023/08/16 03:33:15;;;;;;;14.38;8.73;;;13.90;99.90;;;;;;5081975;28;20045;-57
2023/08/16 03:35:41;;;;;;;14.40;8.80;;;13.90;99.90;;;;;;5098143;28;20043;-56
2023/08/16 03:38:07;;;;;;;13.95;8.85;;;13.90;99.90;;;;;;5083337;28;20496;-56
2023/08/16 03:40:33;;;;;;;12.88;8.23;;;13.90;99.90;;;;;;5076337;28;20075;-56
2023/08/16 03:42:58;;;;;;;13.63;7.88;;;13.80;99.90;;;;;;5082863;28;20049;-56
2023/08/16 03:45:26;;;;;;;8.63;7.72;;;13.80;99.90;;;;;;5096158;28;20435;-57
2023/08/16 03:47:53;;;;;;;13.45;8.25;;;13.80;99.90;;;;;;5103333;28;20109;-56
2023/08/16 03:50:19;;;;;;;8.25;7.32;;;13.80;99.90;;;;;;5093926;28;20036;-56
2023/08/16 03:52:45;;;;;;;11.82;7.70;;;13.80;99.90;;;;;;5091576;28;20123;-56
2023/08/16 03:55:10;;;;;;;11.57;8.40;;;13.80;99.90;;;;;;5091697;28;20127;-56
2023/08/16 03:57:36;;;;;;;9.77;8.10;;;13.80;99.90;;;;;;5068964;28;20052;-56
2023/08/16 04:00:05;;;;;;;13.27;8.25;;;13.80;99.90;;;;;;5081549;28;20036;-56
2023/08/16 04:02:30;;;;;;;11.75;7.95;;;13.70;99.90;;;;;;5083732;28;20041;-56
2023/08/16 04:05:11;;;;;;;9.85;8.10;;;13.70;99.90;;;;;;5092598;28;20123;-56
2023/08/16 04:07:38;;;;;;;13.98;7.50;;;13.70;99.90;;;;;;5101349;28;20116;-56
2023/08/16 04:10:04;;;;;;;10.90;7.60;;;13.70;99.90;;;;;;5095109;28;20052;-56
2023/08/16 04:12:30;;;;;;;11.45;7.93;;;13.60;99.90;;;;;;5082263;28;20075;-56
2023/08/16 04:14:56;;;;;;;12.07;8.35;;;13.70;99.90;;;;;;5085293;28;20052;-57
2023/08/16 04:17:21;;;;;;;12.50;8.60;;;13.70;99.90;;;;;;5102667;28;20104;-55
2023/08/16 04:19:47;;;;;;;13.13;8.68;;;13.70;99.90;;;;;;5097272;28;20044;-56
2023/08/16 04:22:13;;;;;;;11.75;7.82;;;13.60;99.90;;;;;;5081844;28;20151;-56
2023/08/16 04:24:38;;;;;;;9.98;7.60;;;13.60;99.90;;;;;;5080849;28;20029;-56
2023/08/16 04:27:05;;;;;;;14.00;7.80;;;13.60;99.90;;;;;;5079885;28;20041;-56
2023/08/16 04:29:30;;;;;;;11.50;7.53;;;13.60;99.90;;;;;;5081870;28;20515;-56
2023/08/16 04:31:56;;;;;;;11.05;7.00;;;13.60;99.90;;;;;;5076782;28;20037;-56
2023/08/16 04:34:22;;;;;;;11.35;7.75;;;13.60;99.90;;;;;;5077188;28;20096;-57
2023/08/16 04:36:48;;;;;;;10.63;7.35;;;13.60;99.90;;;;;;5078600;28;20056;-56
2023/08/16 04:39:14;;;;;;;11.18;7.50;;;13.60;99.90;;;;;;5082142;28;20098;-56
2023/08/16 04:41:39;;;;;;;9.20;7.30;;;13.50;99.90;;;;;;5080002;28;20156;-55
2023/08/16 04:44:05;;;;;;;11.23;7.43;;;13.50;99.90;;;;;;5089675;28;20040;-57
2023/08/16 04:46:31;;;;;;;10.27;7.05;;;13.50;99.90;;;;;;5082995;28;20500;-56
2023/08/16 04:48:56;;;;;;;11.25;7.47;;;13.60;99.90;;;;;;5077186;28;20076;-56
2023/08/16 04:51:22;;;;;;;8.43;7.20;;;13.50;99.90;;;;;;5082969;28;20040;-56
2023/08/16 04:53:48;;;;;;;11.50;7.55;;;13.50;99.90;;;;;;5076809;28;20769;-56
2023/08/16 04:56:14;;;;;;;10.57;7.63;;;13.50;99.90;;;;;;5091543;28;20115;-57
2023/08/16 04:58:40;;;;;;;12.05;7.80;;;13.40;99.90;;;;;;5079823;28;20068;-56
2023/08/16 05:01:05;;;;;;;8.95;7.85;;;13.40;99.90;;;;;;5081360;28;20068;-56
2023/08/16 05:03:31;;;;;;;10.23;8.52;;;13.50;99.90;;;;;;5069783;28;20401;-56
2023/08/16 05:06:02;;;;;;;13.98;8.27;;;13.50;99.90;;;;;;5060580;28;20450;-56
2023/08/16 05:08:27;;;;;;;13.27;8.98;;;13.50;99.90;;;;;;5061458;28;20048;-57
2023/08/16 05:10:55;;;;;;;11.07;8.60;;;13.50;99.90;;;;;;5059303;28;20112;-56
2023/08/16 05:13:20;;;;;;;13.90;9.65;;;13.50;99.90;;;;;;5068198;28;20055;-56
2023/08/16 05:15:46;;;;;;;12.57;9.57;;;13.60;99.90;;;;;;5059449;28;20495;-56
2023/08/16 05:18:11;;;;;;;12.93;9.57;;;13.60;99.90;;;;;;5061337;28;20045;-56
2023/08/16 05:20:38;;;;;;;12.80;9.02;;;13.60;99.90;;;;;;5060350;28;20033;-56
2023/08/16 05:23:04;;;;;;;10.63;9.02;;;13.70;99.90;;;;;;5060258;28;20056;-56
2023/08/16 05:25:29;;;;;;;13.88;9.23;;;13.70;99.90;;;;;;5078851;28;20044;-56
2023/08/16 05:27:58;;;;;;;13.13;9.60;;;13.70;99.90;;;;;;5087507;28;20048;-56
2023/08/16 05:30:28;;;;;;;15.27;9.73;;;13.80;99.90;;;;;;5099036;28;20618;-56
2023/08/16 05:32:57;;;;;;;16.15;10.07;;;13.80;99.90;;;;;;5086192;28;20047;-56
2023/08/16 05:35:23;;;;;;;12.23;9.05;;;13.90;99.90;;;;;;5069359;28;20572;-56
2023/08/16 05:37:50;;;;;;;16.00;10.30;;;14.40;99.90;;;;;;5083158;28;20080;-56
2023/08/16 05:40:16;;;;;;;20.30;10.98;;;14.00;99.90;;;;;;5089016;28;20563;-56
2023/08/16 05:42:42;;;;;;;17.30;10.02;;;14.00;99.90;;;;;;5096667;28;20070;-56
2023/08/16 05:45:08;;;;;;;18.92;10.35;;;14.10;99.90;;;;;;5089963;28;20044;-56
2023/08/16 05:47:34;;;;;;;15.40;9.70;;;14.20;99.90;;;;;;5101569;28;20079;-56
2023/08/16 05:50:00;;;;;;;18.95;10.35;;;14.30;99.90;;;;;;5097349;28;20040;-56
2023/08/16 05:52:26;;;;;;;17.33;10.30;;;14.30;99.90;;;;;;5098103;28;20044;-56
2023/08/16 05:54:52;;;;;;;13.55;9.15;;;14.40;99.90;;;;;;5081281;28;20094;-56
2023/08/16 05:57:18;;;;;;;15.93;10.05;;;14.50;99.90;;;;;;5084695;28;20036;-56
2023/08/16 05:59:43;;;;;;;13.95;10.52;;;14.60;99.90;;;;;;5080100;28;20072;-56
2023/08/16 06:02:09;;;;;;;17.75;11.82;;;14.70;99.90;;;;;;5081600;28;20045;-56
2023/08/16 06:04:35;;;;;;;21.10;12.25;;;14.80;99.90;;;;;;5072597;28;20081;-55
2023/08/16 06:07:04;;;;;;;16.48;10.73;;;14.80;99.90;;;;;;5086965;28;20047;-56
2023/08/16 06:09:31;;;;;;;18.48;10.60;;;14.90;99.90;;;;;;5082822;28;20044;-56
2023/08/16 06:11:57;;;;;;;19.20;10.52;;;14.90;99.90;;;;;;5079742;28;20464;-56
2023/08/16 06:14:22;;;;;;;14.93;10.65;;;15.00;99.90;;;;;;5079085;28;20079;-56
2023/08/16 06:16:48;;;;;;;17.63;10.20;;;15.00;99.90;;;;;;5085405;28;20067;-56
2023/08/16 06:19:15;;;;;;;16.60;10.20;;;15.10;99.90;;;;;;5082581;28;20048;-56
2023/08/16 06:21:41;;;;;;;15.05;10.35;;;15.10;99.90;;;;;;5080186;28;20052;-56
2023/08/16 06:24:08;;;;;;;14.35;10.25;;;15.10;99.90;;;;;;5077525;28;20040;-58
2023/08/16 06:26:34;;;;;;;13.15;9.63;;;15.10;99.90;;;;;;5082486;28;20064;-56
2023/08/16 06:29:00;;;;;;;17.15;10.02;;;15.10;99.90;;;;;;5085133;28;20079;-56
2023/08/16 06:31:26;;;;;;;17.70;10.60;;;15.20;99.90;;;;;;5077206;28;20105;-57
2023/08/16 06:33:52;;;;;;;16.23;10.55;;;15.20;99.90;;;;;;5078951;28;20053;-57
2023/08/16 06:36:19;;;;;;;13.38;10.68;;;15.30;99.90;;;;;;5075453;28;20095;-56
2023/08/16 06:38:45;;;;;;;15.77;11.10;;;15.30;99.90;;;;;;5078769;28;20052;-56
2023/08/16 06:41:12;;;;;;;17.55;10.63;;;15.40;99.90;;;;;;5081427;28;20040;-56
2023/08/16 06:43:38;;;;;;;15.68;10.75;;;15.50;99.90;;;;;;5071555;28;20025;-56
2023/08/16 06:46:04;;;;;;;16.58;10.30;;;15.60;99.90;;;;;;5077530;28;20059;-57
2023/08/16 06:48:31;;;;;;;11.63;8.93;;;15.80;99.90;;;;;;5079279;28;20075;-58
2023/08/16 06:50:56;;;;;;;14.98;8.52;;;16.30;99.90;;;;;;5073080;28;20049;-56
2023/08/16 06:53:22;;;;;;;9.05;7.25;;;16.60;99.90;;;;;;5058704;28;20052;-60
2023/08/16 06:55:48;;;;;;;10.65;7.22;;;17.00;99.90;;;;;;5074451;28;20123;-56
2023/08/16 06:58:13;;;;;;;8.60;6.85;;;17.50;99.90;;;;;;5078337;28;20621;-57
2023/08/16 07:00:45;;;;;;;11.52;6.72;;;17.90;99.90;;;;;;5079383;28;20055;-57
2023/08/16 07:03:11;;;;;;;9.70;5.90;;;18.20;99.90;;;;;;5077979;28;20032;-57
2023/08/16 07:05:36;;;;;;;7.75;5.72;;;18.20;99.90;;;;;;5079346;28;20040;-58
2023/08/16 07:08:03;;;;;;;12.93;6.75;;;18.40;99.90;;;;;;5082073;28;20051;-57
2023/08/16 07:10:29;;;;;;;9.63;5.60;;;18.60;99.90;;;;;;5089363;28;20029;-57
2023/08/16 07:12:55;;;;;;;8.63;5.55;;;19.00;99.90;;;;;;5068486;28;20072;-57
2023/08/16 07:15:21;;;;;;;11.77;6.10;;;19.30;99.90;;;;;;5080530;28;20076;-57
2023/08/16 07:17:46;;;;;;;11.93;6.32;;;19.60;99.90;;;;;;5082238;28;20413;-57
2023/08/16 07:20:12;;;;;;;10.70;5.53;;;19.80;99.90;;;;;;5070809;28;20041;-57
2023/08/16 07:22:38;;;;;;;10.63;5.00;;;20.00;99.90;;;;;;5072527;28;20041;-57
2023/08/16 07:25:08;;;;;;;9.05;5.30;;;20.20;99.90;;;;;;5094808;28;20043;-57
2023/08/16 07:27:34;;;;;;;8.63;5.13;;;20.40;99.90;;;;;;5076482;28;20056;-58
2023/08/16 07:30:00;;;;;;;9.63;5.03;;;20.50;99.90;;;;;;5076042;28;20056;-57
2023/08/16 07:32:26;;;;;;;8.68;5.20;;;20.70;99.90;;;;;;5072936;28;20424;-57
2023/08/16 07:34:52;;;;;;;12.95;5.32;;;20.90;99.90;;;;;;5067773;28;20049;-57
2023/08/16 07:37:18;;;;;;;9.73;4.93;;;21.00;99.90;;;;;;5076643;28;20068;-57
2023/08/16 07:39:46;;;;;;;12.27;5.13;;;21.00;99.90;;;;;;5080863;28;20060;-56
2023/08/16 07:42:12;;;;;;;7.15;4.85;;;21.00;99.90;;;;;;5074497;28;20040;-56
2023/08/16 07:44:38;;;;;;;7.93;4.88;;;21.10;99.90;;;;;;5068709;28;20500;-56
2023/08/16 07:47:04;;;;;;;10.45;5.28;;;21.20;99.90;;;;;;5082917;28;20119;-56
2023/08/16 07:49:30;;;;;;;10.20;4.55;;;21.40;99.90;;;;;;5077572;28;20037;-56
2023/08/16 07:51:56;;;;;;;9.15;4.78;;;21.30;99.90;;;;;;5081923;28;20040;-57
2023/08/16 07:54:23;;;;;;;7.55;3.80;;;21.40;99.90;;;;;;5081369;28;20106;-57
2023/08/16 07:56:50;;;;;;;8.38;4.70;;;21.50;99.90;;;;;;5081715;28;20047;-57
2023/08/16 07:59:16;;;;;;;7.47;4.78;;;21.60;99.90;;;;;;5081012;28;20384;-56
2023/08/16 08:01:43;;;;;;;9.98;4.72;;;21.60;99.90;;;;;;5074934;28;20108;-57
2023/08/16 08:04:09;;;;;;;8.75;4.53;;;21.60;99.90;;;;;;5077308;28;20051;-57
2023/08/16 08:06:35;;;;;;;7.90;3.63;;;21.50;99.90;;;;;;5080361;28;20050;-57
2023/08/16 08:09:02;;;;;;;7.75;4.05;;;21.40;99.90;;;;;;5082622;28;20053;-57
2023/08/16 08:11:28;;;;;;;7.63;3.70;;;21.20;99.90;;;;;;5079018;28;20072;-57
2023/08/16 08:13:54;;;;;;;8.60;4.18;;;21.00;99.90;;;;;;5081861;28;20044;-57
2023/08/16 08:16:19;;;;;;;9.40;4.05;;;20.90;99.90;;;;;;5081633;28;20047;-57
2023/08/16 08:18:45;;;;;;;8.77;4.05;;;20.80;99.90;;;;;;5081148;28;20043;-57
2023/08/16 08:21:11;;;;;;;10.65;3.80;;;20.70;99.90;;;;;;5081094;28;20039;-56
2023/08/16 08:23:37;;;;;;;7.20;3.67;;;20.60;99.90;;;;;;5075760;28;20041;-58
2023/08/16 08:26:03;;;;;;;5.22;3.40;;;20.60;99.90;;;;;;5102668;28;20048;-57
2023/08/16 08:28:28;;;;;;;4.53;3.13;;;20.60;99.90;;;;;;5076747;28;20076;-55
2023/08/16 08:30:54;;;;;;;7.43;3.20;;;20.60;99.90;;;;;;5072760;28;20045;-57
2023/08/16 08:33:20;;;;;;;7.32;3.38;;;20.60;99.90;;;;;;5075242;28;20072;-57
2023/08/16 08:35:46;;;;;;;8.23;3.42;;;20.60;99.90;;;;;;5080683;28;20403;-57
2023/08/16 08:38:12;;;;;;;6.88;3.20;;;20.60;99.90;;;;;;5067050;28;20537;-56
2023/08/16 08:40:38;;;;;;;4.75;2.47;;;20.60;99.90;;;;;;5076433;28;20112;-57
2023/08/16 08:43:06;;;;;;;5.63;2.55;;;20.50;99.90;;;;;;5076878;28;20474;-57
2023/08/16 08:45:33;;;;;;;5.00;2.45;;;20.50;99.90;;;;;;5065750;28;20048;-57
2023/08/16 08:48:00;;;;;;;8.35;2.40;;;20.40;99.90;;;;;;5078439;28;20063;-57
2023/08/16 08:50:29;;;;;;;5.82;2.35;;;20.40;99.90;;;;;;5073965;28;20037;-56
2023/08/16 08:52:56;;;;;;;4.25;1.83;;;20.30;99.90;;;;;;5070992;28;20579;-56
2023/08/16 08:55:25;;;;;;;6.63;2.10;;;20.30;99.90;;;;;;5071799;28;20036;-59
2023/08/16 08:57:56;;;;;;;7.22;2.30;;;20.30;99.90;;;;;;5063977;28;20124;-57
2023/08/16 09:00:24;;;;;;;3.45;1.58;;;20.20;99.90;;;;;;5066890;28;20037;-56
2023/08/16 09:02:51;;;;;;;3.53;1.70;;;20.20;99.90;;;;;;5064303;28;20040;-57
2023/08/16 09:05:20;;;;;;;5.38;2.10;;;20.20;99.90;;;;;;5064625;28;20400;-56
2023/08/16 09:07:46;;;;;;;3.65;2.03;;;20.20;99.90;;;;;;5068977;28;20059;-56
2023/08/16 09:10:13;;;;;;;4.30;2.47;;;20.20;99.90;;;;;;5068114;28;20036;-57
2023/08/16 09:12:39;;;;;;;7.68;2.60;;;20.20;99.90;;;;;;5075084;28;20131;-56
2023/08/16 09:15:07;;;;;;;4.80;2.80;;;20.30;99.90;;;;;;5072029;28;20068;-57
2023/08/16 09:17:33;;;;;;;7.47;2.58;;;20.30;99.90;;;;;;5065027;28;20125;-57
2023/08/16 09:20:00;;;;;;;4.82;2.92;;;20.30;99.90;;;;;;5060472;28;20056;-57
2023/08/16 09:22:27;;;;;;;5.53;2.38;;;20.40;99.90;;;;;;5062264;28;20041;-57
2023/08/16 09:24:56;;;;;;;4.88;2.20;;;20.40;99.90;;;;;;5065271;28;20131;-57
2023/08/16 09:27:25;;;;;;;5.15;2.20;;;20.50;99.90;;;;;;5076218;28;20088;-58
2023/08/16 09:29:55;;;;;;;6.90;1.90;;;20.60;99.90;;;;;;5062132;28;21798;-57
2023/08/16 09:32:21;;;;;;;4.35;1.80;;;20.70;99.90;;;;;;5060217;28;20044;-58
2023/08/16 09:34:47;;;;;;;3.55;1.70;;;20.80;99.90;;;;;;5068247;28;20045;-57
2023/08/16 09:37:15;;;;;;;3.85;1.70;;;20.90;99.90;;;;;;5064227;28;20049;-56
2023/08/16 09:39:40;;;;;;;3.92;1.60;;;21.00;99.90;;;;;;5070671;28;20064;-57
2023/08/16 09:42:10;;;;;;;1.92;1.10;;;21.00;99.90;;;;;;5060297;28;20037;-57
2023/08/16 09:44:37;;;;;;;3.47;1.30;;;21.10;99.90;;;;;;5062250;28;20056;-58
2023/08/16 09:47:15;;;;;;;3.45;1.42;;;21.10;99.90;;;;;;5061359;28;20563;-57
2023/08/16 09:49:43;;;;;;;4.53;1.50;;;21.20;99.90;;;;;;5068775;28;20051;-56
2023/08/16 09:52:12;;;;;;;3.20;1.48;;;21.20;99.90;;;;;;5068427;28;20048;-57
2023/08/16 09:54:38;;;;;;;3.17;1.80;;;21.20;99.90;;;;;;5069374;28;20041;-56
2023/08/16 09:57:04;;;;;;;6.55;1.80;;;21.20;99.90;;;;;;5063130;28;20039;-57
2023/08/16 09:59:31;;;;;;;4.00;1.50;;;21.20;99.90;;;;;;5073488;28;20040;-57
2023/08/16 10:02:00;;;;;;;4.40;1.50;;;21.30;99.90;;;;;;5063829;28;20103;-57
2023/08/16 10:04:27;;;;;;;2.75;1.60;;;21.20;99.90;;;;;;5071487;28;20047;-57
2023/08/16 10:06:54;;;;;;;6.00;1.73;;;21.30;99.90;;;;;;5076110;28;20156;-58
2023/08/16 10:09:22;;;;;;;2.75;1.38;;;21.20;99.90;;;;;;5068399;28;20040;-57
2023/08/16 10:11:49;;;;;;;4.03;1.60;;;21.20;99.90;;;;;;5069439;28;20036;-56
2023/08/16 10:14:15;;;;;;;2.33;1.30;;;21.20;99.90;;;;;;5068162;28;20689;-57
2023/08/16 10:16:42;;;;;;;3.38;1.30;;;21.40;99.90;;;;;;5075962;28;20025;-56
2023/08/16 10:19:15;;;;;;;4.75;1.63;;;21.40;99.90;;;;;;5069301;28;20045;-58
2023/08/16 10:21:48;;;;;;;5.65;1.90;;;21.40;99.90;;;;;;5064317;28;20533;-59
2023/08/16 10:24:15;;;;;;;4.47;1.63;;;21.50;99.90;;;;;;5069440;28;20041;-58
2023/08/16 10:26:46;;;;;;;3.88;1.48;;;21.50;99.90;;;;;;5067080;28;20530;-59
2023/08/16 10:29:14;;;;;;;4.63;1.70;;;21.50;99.90;;;;;;5072747;28;20043;-58
2023/08/16 10:31:44;;;;;;;2.38;1.40;;;21.50;99.90;;;;;;5066624;28;20045;-58
2023/08/16 10:34:14;;;;;;;5.78;1.85;;;21.50;99.90;;;;;;5073039;28;20040;-58
2023/08/16 10:36:40;;;;;;;3.90;1.50;;;21.50;99.90;;;;;;5066490;28;20100;-58
2023/08/16 10:39:07;;;;;;;2.20;1.42;;;21.50;99.90;;;;;;5059577;28;20045;-58
2023/08/16 10:41:42;;;;;;;5.90;1.30;;;21.60;99.90;;;;;;5061547;28;20044;-58
2023/08/16 10:44:09;;;;;;;4.95;1.52;;;21.60;99.90;;;;;;5070287;28;20037;-59
2023/08/16 10:46:36;;;;;;;5.38;1.52;;;21.70;99.90;;;;;;5067123;28;20070;-58
2023/08/16 10:49:05;;;;;;;2.90;1.30;;;21.60;99.90;;;;;;5072007;28;20055;-59
2023/08/16 10:51:43;;;;;;;4.35;1.20;;;21.70;99.90;;;;;;5069024;28;21609;-59
2023/08/16 10:54:08;;;;;;;3.92;1.20;;;21.70;99.90;;;;;;5064894;28;20105;-59
2023/08/16 10:56:44;;;;;;;2.58;1.40;;;21.70;99.90;;;;;;5063834;28;20044;-58
2023/08/16 10:59:10;;;;;;;;;;;21.80;99.90;;;;;;5067312;28;20208;-58
2023/08/16 11:01:44;;;;;;;3.50;1.30;;;21.80;99.90;;;;;;5069474;28;19920;-59
2023/08/16 11:04:10;;;;;;;3.80;1.30;;;21.80;99.90;;;;;;5064193;28;20175;-59
2023/08/16 11:06:39;;;;;;;2.58;1.40;;;21.80;99.90;;;;;;5066519;28;20029;-59
2023/08/16 11:09:05;;;;;;;3.03;1.30;;;21.80;99.90;;;;;;5063106;28;20053;-58
2023/08/16 11:11:31;;;;;;;2.60;1.13;;;21.90;99.90;;;;;;5062857;28;20041;-58
2023/08/16 11:14:02;;;;;;;3.20;1.30;;;22.00;99.90;;;;;;5065349;28;20062;-59
2023/08/16 11:16:29;;;;;;;2.15;1.20;;;22.00;99.90;;;;;;5062821;28;20041;-58
2023/08/16 11:18:59;;;;;;;2.83;1.13;;;22.10;99.90;;;;;;5062307;28;20090;-59
2023/08/16 11:21:25;;;;;;;3.42;1.50;;;22.10;99.90;;;;;;5071674;28;20037;-58
2023/08/16 11:23:54;;;;;;;3.00;1.20;;;22.10;99.90;;;;;;5069263;28;20041;-59
2023/08/16 11:26:20;;;;;;;2.03;1.10;;;22.10;99.90;;;;;;5071525;28;20123;-59
2023/08/16 11:28:46;;;;;;;2.92;1.10;;;22.10;99.90;;;;;;5072454;28;20045;-58
2023/08/16 11:31:12;;;;;;;4.30;1.00;;;22.10;99.90;;;;;;5071245;28;20120;-58
2023/08/16 11:33:42;;;;;;;2.10;1.00;;;22.20;99.90;;;;;;5066308;28;20116;-60
2023/08/16 11:36:12;;;;;;;3.88;1.10;;;22.30;99.90;;;;;;5069668;28;20327;-59
2023/08/16 11:38:41;;;;;;;3.10;1.20;;;22.30;99.90;;;;;;5064738;28;20107;-56
2023/08/16 11:41:07;;;;;;;2.95;1.45;;;22.30;99.90;;;;;;5065723;28;20563;-58
2023/08/16 11:43:35;;;;;;;2.97;1.25;;;22.40;99.90;;;;;;5064193;28;20045;-59
2023/08/16 11:46:02;;;;;;;2.35;0.98;;;22.40;99.90;;;;;;5061741;28;20091;-58
2023/08/16 11:48:33;;;;;;;3.03;0.95;;;22.40;99.90;;;;;;5065178;28;20470;-58
2023/08/16 11:50:59;;;;;;;3.63;1.10;;;22.40;99.90;;;;;;5064701;28;20096;-58
2023/08/16 11:53:33;;;;;;;3.58;0.90;;;22.40;99.90;;;;;;5060301;28;20095;-56
2023/08/16 11:56:08;;;;;;;2.83;1.10;;;22.50;99.90;;;;;;5068781;28;20040;-56
2023/08/16 11:58:44;;;;;;;2.20;1.08;;;22.50;99.90;;;;;;5066201;28;20051;-56
2023/08/16 12:01:14;;;;;;;3.17;0.90;;;22.50;99.90;;;;;;5064745;28;20048;-57
2023/08/16 12:03:46;;;;;;;1.63;1.00;;;22.60;99.90;;;;;;5068879;28;20052;-56
2023/08/16 12:06:12;;;;;;;4.00;1.27;;;22.70;99.90;;;;;;5060455;28;20080;-56
2023/08/16 12:08:51;;;;;;;2.05;1.00;;;22.70;99.90;;;;;;5064604;28;20036;-57
2023/08/16 12:11:26;;;;;;;3.42;1.40;;;22.90;99.90;;;;;;5073625;28;20044;-57
2023/08/16 12:13:52;;;;;;;6.00;1.50;;;22.90;99.90;;;;;;5067544;28;20083;-57
2023/08/16 12:16:18;;;;;;;2.70;1.23;;;22.90;99.90;;;;;;5068841;28;20077;-56
2023/08/16 12:18:43;;;;;;;3.50;1.15;;;23.00;99.90;;;;;;5072545;28;20064;-57
2023/08/16 12:21:09;;;;;;;1.98;1.17;;;23.00;99.90;;;;;;5075659;28;20159;-57
2023/08/16 12:23:35;;;;;;;3.20;1.10;;;23.10;99.90;;;;;;5068897;28;20071;-57
2023/08/16 12:26:00;;;;;;;6.97;1.50;;;23.10;99.90;;;;;;5071875;28;20041;-57
2023/08/16 12:28:26;;;;;;;4.95;1.48;;;23.20;99.90;;;;;;5068477;28;20044;-57
2023/08/16 12:30:51;;;;;;;2.00;1.20;;;23.30;99.90;;;;;;5061887;28;20060;-59
2023/08/16 12:33:17;;;;;;;4.68;1.30;;;23.30;99.90;;;;;;5067458;28;20501;-57
2023/08/16 12:35:43;;;;;;;2.80;1.10;;;23.40;99.90;;;;;;5072398;28;20540;-56
2023/08/16 12:38:09;;;;;;;3.15;1.20;;;23.40;99.90;;;;;;5070797;28;20056;-56
2023/08/16 12:40:35;;;;;;;6.35;1.20;;;23.50;99.90;;;;;;5074177;28;20048;-57